createdAt,value
2023-02-05T00:01:18.423Z,126.80
2023-02-05T00:04:22.999Z,132.38
2023-02-05T00:07:26.318Z,163.52
2023-02-05T00:10:29.591Z,157.82
2023-02-05T00:13:32.871Z,126.45
2023-02-05T00:16:36.720Z,131.65
2023-02-05T00:19:41.502Z,219.55
2023-02-05T00:22:44.820Z,163.75
2023-02-05T00:25:48.055Z,216.98
2023-02-05T00:28:51.400Z,136.93
2023-02-05T00:31:54.612Z,159.95
2023-02-05T00:34:59.215Z,197.68
2023-02-05T00:38:02.440Z,185.05
2023-02-05T00:41:06.144Z,144.45
2023-02-05T00:44:09.472Z,148.05
2023-02-05T00:47:12.685Z,146.88
2023-02-05T00:50:18.459Z,159.60
2023-02-05T00:53:22.777Z,177.45
2023-02-05T00:56:26.072Z,163.10
2023-02-05T00:59:29.621Z,171.85
2023-02-05T01:02:32.876Z,172.30
2023-02-05T01:05:38.674Z,172.52
2023-02-05T01:08:42.013Z,157.80
2023-02-05T01:11:45.210Z,210.05
2023-02-05T01:14:48.480Z,359.73
2023-02-05T01:17:51.672Z,174.23
2023-02-05T01:20:56.370Z,161.27
2023-02-05T01:24:01.589Z,175.50
2023-02-05T01:27:04.938Z,184.57
2023-02-05T01:30:11.683Z,278.88
2023-02-05T01:33:15.261Z,181.48
2023-02-05T01:36:19.968Z,194.82
2023-02-05T01:39:23.531Z,166.23
2023-02-05T01:42:29.290Z,169.43
2023-02-05T01:45:56.169Z,154.43
2023-02-05T01:49:00.912Z,161.95
2023-02-05T01:52:09.728Z,163.35
2023-02-05T01:55:13.727Z,147.05
2023-02-05T01:58:17.228Z,141.85
2023-02-05T02:01:20.933Z,139.23
2023-02-05T02:04:35.264Z,124.45
2023-02-05T02:07:40.792Z,129.30
2023-02-05T02:10:47.293Z,133.45
2023-02-05T02:13:54.147Z,132.80
2023-02-05T02:16:58.731Z,119.68
2023-02-05T02:20:04.629Z,145.07
2023-02-05T02:23:18.036Z,156.73
2023-02-05T02:26:43.765Z,191.65
2023-02-05T02:29:53.348Z,167.82
2023-02-05T02:33:07.772Z,127.40
2023-02-05T02:36:15.892Z,175.57
2023-02-05T02:39:24.262Z,221.80
2023-02-05T02:42:34.992Z,181.35
2023-02-05T02:45:46.536Z,182.90
2023-02-05T02:48:53.678Z,256.83
2023-02-05T02:51:59.043Z,196.07
2023-02-05T02:55:07.962Z,175.32
2023-02-05T02:58:17.785Z,202.00
2023-02-05T03:01:32.804Z,122.90
2023-02-05T03:04:40.125Z,153.65
2023-02-05T03:07:47.444Z,140.57
2023-02-05T03:11:01.042Z,185.25
2023-02-05T03:14:07.262Z,140.82
2023-02-05T03:17:19.805Z,141.30
2023-02-05T03:20:28.759Z,321.92
2023-02-05T03:23:34.354Z,116.07
2023-02-05T03:26:42.840Z,98.47
2023-02-05T03:29:56.418Z,100.95
2023-02-05T03:33:11.961Z,153.50
2023-02-05T03:36:26.805Z,295.25
2023-02-05T03:39:46.411Z,101.22
2023-02-05T03:43:01.351Z,92.47
2023-02-05T03:46:11.819Z,74.80
2023-02-05T03:49:21.266Z,143.85
2023-02-05T03:52:32.763Z,80.35
2023-02-05T03:55:42.877Z,110.25
2023-02-05T04:01:54.131Z,251.32
2023-02-05T04:05:01.369Z,85.68
2023-02-05T04:08:06.249Z,92.05
2023-02-05T04:11:17.516Z,104.72
2023-02-05T04:14:28.127Z,93.75
2023-02-05T04:17:33.716Z,91.50
2023-02-05T04:20:39.025Z,103.05
2023-02-05T04:23:44.605Z,102.70
2023-02-05T04:26:50.895Z,99.70
2023-02-05T04:29:54.898Z,97.65
2023-02-05T04:32:58.504Z,95.65
2023-02-05T04:36:03.704Z,100.63
2023-02-05T04:39:07.314Z,92.07
2023-02-05T04:42:12.004Z,93.60
2023-02-05T04:45:15.582Z,131.82
2023-02-05T04:48:19.377Z,101.57
2023-02-05T04:51:24.710Z,90.75
2023-02-05T04:54:28.860Z,106.40
2023-02-05T04:57:32.591Z,98.20
2023-02-05T05:00:36.042Z,94.40
2023-02-05T05:03:39.519Z,88.47
2023-02-05T05:06:44.491Z,91.05
2023-02-05T05:09:47.999Z,82.43
2023-02-05T05:12:53.165Z,91.80
2023-02-05T05:15:57.346Z,87.05
2023-02-05T05:19:00.854Z,104.00
2023-02-05T05:22:05.886Z,98.65
2023-02-05T05:25:09.653Z,80.50
2023-02-05T05:28:13.816Z,95.47
2023-02-05T05:31:19.924Z,174.00
2023-02-05T05:34:23.450Z,162.57
2023-02-05T05:37:28.329Z,145.70
2023-02-05T05:40:49.963Z,246.32
2023-02-05T05:43:54.826Z,179.52
2023-02-05T05:46:58.432Z,147.23
2023-02-05T05:50:01.960Z,164.75
2023-02-05T05:53:06.944Z,180.73
2023-02-05T05:56:10.572Z,169.38
2023-02-05T05:59:14.177Z,156.93
2023-02-05T06:02:17.753Z,163.25
2023-02-05T06:05:21.320Z,151.10
2023-02-05T06:08:26.748Z,162.52
2023-02-05T06:11:30.271Z,173.60
2023-02-05T06:14:34.008Z,180.60
2023-02-05T06:17:37.676Z,182.85
2023-02-05T06:20:41.193Z,252.00
2023-02-05T06:23:46.113Z,204.75
2023-02-05T06:26:49.567Z,226.27
2023-02-05T06:29:52.857Z,230.43
2023-02-05T06:32:56.203Z,237.10
2023-02-05T06:35:59.664Z,230.05
2023-02-05T06:39:04.562Z,251.40
2023-02-05T06:42:07.965Z,260.80
2023-02-05T06:45:12.309Z,267.70
2023-02-05T06:48:15.695Z,258.63
2023-02-05T06:51:26.455Z,307.55
2023-02-05T06:54:32.162Z,361.88
2023-02-05T06:57:35.748Z,292.58
2023-02-05T07:00:39.162Z,320.00
2023-02-05T07:03:42.642Z,304.30
2023-02-05T07:06:46.125Z,352.77
2023-02-05T07:09:51.054Z,285.00
2023-02-05T07:12:54.934Z,262.45
2023-02-05T07:15:58.459Z,290.67
2023-02-05T07:19:01.896Z,223.73
2023-02-05T07:22:06.082Z,214.07
2023-02-05T07:25:11.308Z,223.77
2023-02-05T07:28:14.778Z,200.80
2023-02-05T07:31:21.591Z,147.20
2023-02-05T07:34:24.988Z,166.98
2023-02-05T07:37:28.505Z,202.32
2023-02-05T07:40:33.700Z,141.38
2023-02-05T07:43:37.474Z,293.73
2023-02-05T07:46:40.967Z,112.68
2023-02-05T07:49:45.761Z,120.43
2023-02-05T07:52:49.382Z,93.47
2023-02-05T07:55:54.328Z,126.75
2023-02-05T07:58:57.827Z,72.57
2023-02-05T08:02:01.605Z,110.03
2023-02-05T08:05:05.217Z,76.32
2023-02-05T08:08:09.106Z,84.07
2023-02-05T08:11:16.986Z,81.75
2023-02-05T08:14:20.509Z,85.30
2023-02-05T08:17:23.814Z,85.65
2023-02-05T08:20:27.117Z,75.25
2023-02-05T08:23:30.670Z,71.65
2023-02-05T08:26:36.866Z,80.63
2023-02-05T08:29:40.594Z,79.25
2023-02-05T08:32:47.788Z,79.10
2023-02-05T08:35:51.403Z,64.80
2023-02-05T08:38:55.911Z,95.13
2023-02-05T08:42:00.645Z,64.55
2023-02-05T08:45:06.030Z,50.63
2023-02-05T08:48:09.590Z,57.45
2023-02-05T08:51:13.956Z,61.40
2023-02-05T08:54:17.491Z,58.90
2023-02-05T08:57:22.951Z,78.88
2023-02-05T09:00:27.056Z,71.78
2023-02-05T09:03:31.803Z,90.97
2023-02-05T09:06:35.436Z,105.32
2023-02-05T09:09:38.896Z,69.28
2023-02-05T09:12:43.913Z,75.20
2023-02-05T09:15:49.099Z,68.55
2023-02-05T09:18:54.640Z,59.92
2023-02-05T09:21:57.959Z,62.00
2023-02-05T09:25:01.281Z,51.13
2023-02-05T09:28:08.115Z,63.15
2023-02-05T09:31:14.625Z,60.10
2023-02-05T09:34:18.168Z,67.78
2023-02-05T09:37:22.563Z,59.60
2023-02-05T09:40:28.888Z,60.55
2023-02-05T09:43:46.072Z,54.95
2023-02-05T09:46:59.094Z,88.00
2023-02-05T09:50:08.740Z,33.42
2023-02-05T09:53:18.068Z,42.30
2023-02-05T09:56:22.326Z,40.83
2023-02-05T09:59:29.075Z,65.97
2023-02-05T10:02:38.552Z,48.67
2023-02-05T10:05:48.400Z,48.40
2023-02-05T10:09:02.382Z,49.47
2023-02-05T10:12:17.693Z,59.75
2023-02-05T10:15:37.705Z,80.82
2023-02-05T10:18:53.425Z,61.45
2023-02-05T10:22:11.735Z,55.38
2023-02-05T10:25:35.951Z,67.68
2023-02-05T10:29:00.735Z,79.35
2023-02-05T10:32:22.891Z,53.63
2023-02-05T10:35:33.143Z,64.85
2023-02-05T10:38:43.200Z,55.58
2023-02-05T10:41:49.950Z,48.38
2023-02-05T10:45:01.724Z,36.92
2023-02-05T10:48:20.856Z,40.53
2023-02-05T10:51:30.418Z,33.22
2023-02-05T10:54:35.279Z,40.38
2023-02-05T10:57:38.560Z,47.40
2023-02-05T11:00:41.967Z,63.35
2023-02-05T11:03:55.737Z,67.28
2023-02-05T11:06:59.185Z,64.30
2023-02-05T11:10:16.402Z,63.03
2023-02-05T11:13:21.646Z,59.92
2023-02-05T11:16:35.288Z,71.32
2023-02-05T11:19:40.002Z,103.53
2023-02-05T11:22:45.896Z,65.63
2023-02-05T11:25:54.169Z,140.50
2023-02-05T11:28:57.702Z,68.65
2023-02-05T11:32:01.366Z,92.10
2023-02-05T11:35:28.261Z,91.50
2023-02-05T11:38:45.340Z,121.18
2023-02-05T11:41:56.813Z,167.98
2023-02-05T11:45:03.299Z,90.38
2023-02-05T11:48:22.403Z,125.03
2023-02-05T11:51:42.615Z,94.90
2023-02-05T11:58:00.126Z,84.57
2023-02-05T12:01:06.697Z,102.10
2023-02-05T12:04:21.883Z,204.52
2023-02-05T12:07:31.388Z,87.82
2023-02-05T12:10:43.494Z,136.48
2023-02-05T12:14:02.359Z,102.97
2023-02-05T12:17:19.804Z,95.45
2023-02-05T12:20:28.966Z,88.45
2023-02-05T12:23:48.990Z,86.03
2023-02-05T12:26:58.172Z,144.38
2023-02-05T12:30:13.804Z,91.17
2023-02-05T12:33:34.612Z,87.82
2023-02-05T12:36:54.255Z,110.47
2023-02-05T12:40:08.770Z,86.07
2023-02-05T12:43:24.770Z,72.18
2023-02-05T12:46:46.080Z,85.28
2023-02-05T12:50:08.936Z,63.55
2023-02-05T12:53:41.091Z,64.18
2023-02-05T12:56:59.165Z,65.53
2023-02-05T13:00:06.167Z,61.35
2023-02-05T13:03:18.669Z,70.30
2023-02-05T13:06:25.920Z,71.60
2023-02-05T13:09:38.218Z,51.58
2023-02-05T13:12:46.740Z,64.53
2023-02-05T13:16:03.704Z,90.97
2023-02-05T13:19:21.543Z,62.35
2023-02-05T13:22:46.250Z,66.47
2023-02-05T13:26:08.851Z,97.07
2023-02-05T13:29:17.560Z,75.63
2023-02-05T13:32:25.388Z,68.68
2023-02-05T13:35:34.477Z,63.10
2023-02-05T13:38:53.569Z,74.30
2023-02-05T13:42:15.512Z,76.38
2023-02-05T13:45:55.748Z,107.70
2023-02-05T13:49:32.321Z,91.10
2023-02-05T13:53:07.239Z,91.95
2023-02-05T13:56:32.067Z,88.03
2023-02-05T13:59:38.939Z,89.78
2023-02-05T14:02:45.467Z,183.88
2023-02-05T14:05:50.661Z,132.27
2023-02-05T14:09:04.253Z,169.80
2023-02-05T14:12:11.187Z,214.20
2023-02-05T14:15:37.879Z,242.13
2023-02-05T14:18:51.316Z,211.13
2023-02-05T14:22:07.521Z,189.50
2023-02-05T14:26:02.136Z,228.15
2023-02-05T14:29:27.639Z,236.75
2023-02-05T14:33:00.145Z,168.27
2023-02-05T14:36:43.101Z,146.85
2023-02-05T14:39:54.907Z,161.40
2023-02-05T14:43:09.843Z,153.35
2023-02-05T14:46:27.182Z,157.98
2023-02-05T14:49:45.406Z,148.75
2023-02-05T14:52:58.242Z,145.07
2023-02-05T14:56:16.767Z,146.15
2023-02-05T14:59:24.850Z,127.22
2023-02-05T15:02:52.016Z,131.75
2023-02-05T15:06:06.572Z,143.60
2023-02-05T15:09:18.666Z,148.27
2023-02-05T15:12:53.870Z,179.05
2023-02-05T15:16:21.060Z,130.25
2023-02-05T15:19:25.342Z,121.93
2023-02-05T15:22:36.952Z,136.70
2023-02-05T15:25:45.897Z,142.32
2023-02-05T15:28:59.611Z,164.15
2023-02-05T15:32:07.372Z,172.88
2023-02-05T15:35:16.551Z,183.80
2023-02-05T15:38:35.124Z,152.00
2023-02-05T15:41:42.858Z,161.43
2023-02-05T15:44:49.781Z,146.30
2023-02-05T15:48:06.712Z,178.98
2023-02-05T15:51:29.313Z,180.52
2023-02-05T15:54:42.175Z,144.98
2023-02-05T15:57:49.134Z,184.55
2023-02-05T16:01:01.854Z,213.50
2023-02-05T16:04:22.476Z,242.73
2023-02-05T16:07:33.859Z,191.80
2023-02-05T16:10:39.502Z,184.98
2023-02-05T16:13:48.392Z,207.48
2023-02-05T16:17:04.851Z,216.20
2023-02-05T16:20:22.534Z,213.73
2023-02-05T16:23:33.344Z,241.52
2023-02-05T16:26:49.604Z,239.15
2023-02-05T16:29:57.617Z,219.15
2023-02-05T16:33:10.755Z,265.63
2023-02-05T16:36:23.752Z,252.80
2023-02-05T16:39:40.980Z,261.25
2023-02-05T16:42:50.494Z,263.65
2023-02-05T16:46:53.186Z,226.70
2023-02-05T16:49:58.541Z,273.58
2023-02-05T16:53:02.663Z,279.92
2023-02-05T16:56:14.579Z,298.45
2023-02-05T16:59:23.219Z,284.52
2023-02-05T17:02:30.598Z,294.50
2023-02-05T17:05:40.927Z,350.85
2023-02-05T17:08:47.690Z,290.85
2023-02-05T17:11:57.084Z,312.83
2023-02-05T17:15:32.838Z,301.13
2023-02-05T17:18:38.737Z,315.90
2023-02-05T17:21:44.583Z,293.48
2023-02-05T17:24:50.509Z,311.50
2023-02-05T17:27:54.894Z,299.08
2023-02-05T17:31:00.580Z,320.92
2023-02-05T17:34:04.966Z,275.08
2023-02-05T17:37:09.854Z,266.25
2023-02-05T17:40:14.226Z,303.27
2023-02-05T17:43:18.024Z,278.48
2023-02-05T17:46:23.219Z,272.17
2023-02-05T17:49:39.999Z,241.73
2023-02-05T17:52:46.912Z,312.88
2023-02-05T17:55:51.996Z,277.10
2023-02-05T17:58:56.027Z,327.95
2023-02-05T18:02:05.198Z,285.13
2023-02-05T18:05:15.425Z,358.42
2023-02-05T18:08:21.811Z,285.35
2023-02-05T18:11:25.288Z,300.13
2023-02-05T18:14:29.455Z,252.40
2023-02-05T18:17:55.015Z,230.57
2023-02-05T18:20:59.819Z,246.88
2023-02-05T18:24:04.242Z,251.15
2023-02-05T18:27:08.813Z,305.83
2023-02-05T18:30:13.834Z,254.88
2023-02-05T18:33:19.197Z,256.80
2023-02-05T18:36:24.144Z,257.95
2023-02-05T18:39:29.757Z,234.02
2023-02-05T18:42:33.194Z,214.98
2023-02-05T18:45:39.978Z,237.98
2023-02-05T18:48:45.902Z,239.10
2023-02-05T18:51:49.780Z,242.48
2023-02-05T18:54:54.083Z,256.95
2023-02-05T18:57:57.538Z,287.42
2023-02-05T19:01:09.917Z,277.25
2023-02-05T19:04:18.635Z,254.80
2023-02-05T19:07:23.013Z,268.52
2023-02-05T19:10:26.446Z,274.92
2023-02-05T19:13:30.108Z,279.77
2023-02-05T19:16:35.619Z,281.63
2023-02-05T19:19:40.626Z,293.05
2023-02-05T19:22:44.212Z,240.60
2023-02-05T19:25:48.913Z,262.38
2023-02-05T19:28:55.971Z,279.45
2023-02-05T19:31:59.912Z,263.40
2023-02-05T19:35:05.620Z,255.25
2023-02-05T19:38:09.077Z,225.85
2023-02-05T19:41:16.026Z,275.02
2023-02-05T19:44:23.583Z,273.50
2023-02-05T19:47:53.742Z,270.33
2023-02-05T19:54:15.373Z,272.10
2023-02-05T19:57:37.996Z,276.17
2023-02-05T20:00:52.084Z,253.45
2023-02-05T20:04:01.602Z,233.45
2023-02-05T20:07:06.689Z,270.98
2023-02-05T20:10:15.471Z,235.52
2023-02-05T20:13:21.748Z,246.02
2023-02-05T20:16:25.232Z,233.55
2023-02-05T20:19:31.381Z,254.25
2023-02-05T20:22:36.474Z,243.45
2023-02-05T20:25:42.722Z,253.45
2023-02-05T20:29:07.158Z,244.70
2023-02-05T20:32:15.082Z,220.45
2023-02-05T20:35:22.386Z,244.88
2023-02-05T20:38:34.360Z,219.45
2023-02-05T20:41:38.566Z,279.52
2023-02-05T20:44:43.205Z,232.63
2023-02-05T20:47:46.504Z,220.40
2023-02-05T20:50:49.818Z,220.18
2023-02-05T20:53:58.036Z,217.70
2023-02-05T20:57:02.026Z,210.93
2023-02-05T21:00:06.279Z,225.73
2023-02-05T21:03:10.542Z,200.80
2023-02-05T21:06:16.893Z,205.80
2023-02-05T21:09:22.845Z,238.73
2023-02-05T21:12:29.254Z,220.63
2023-02-05T21:15:33.452Z,229.38
2023-02-05T21:18:38.339Z,221.55
2023-02-05T21:21:42.019Z,208.48
2023-02-05T21:24:47.908Z,251.27
2023-02-05T21:27:51.921Z,217.05
2023-02-05T21:31:02.626Z,206.55
2023-02-05T21:34:07.455Z,205.35
2023-02-05T21:37:10.772Z,202.07
2023-02-05T21:40:16.142Z,223.20
2023-02-05T21:43:20.021Z,197.10
2023-02-05T21:46:27.439Z,201.43
2023-02-05T21:49:30.972Z,206.90
2023-02-05T21:52:34.319Z,197.52
2023-02-05T21:55:39.281Z,212.02
2023-02-05T21:58:43.580Z,212.80
2023-02-05T22:01:48.428Z,198.02
2023-02-05T22:04:51.729Z,192.18
2023-02-05T22:07:55.088Z,197.05
2023-02-05T22:11:03.521Z,218.98
2023-02-05T22:14:07.482Z,199.15
2023-02-05T22:17:10.656Z,230.65
2023-02-05T22:20:16.000Z,203.15
2023-02-05T22:23:19.286Z,212.93
2023-02-05T22:26:26.559Z,194.93
2023-02-05T22:29:30.354Z,197.25
2023-02-05T22:32:33.671Z,212.07
2023-02-05T22:35:43.392Z,231.38
2023-02-05T22:39:00.171Z,234.23
2023-02-05T22:42:13.690Z,228.57
2023-02-05T22:45:38.861Z,241.27
2023-02-05T22:48:57.247Z,255.43
2023-02-05T22:52:09.461Z,263.30
2023-02-05T22:55:31.201Z,245.10
2023-02-05T22:58:50.282Z,246.68
2023-02-05T23:02:08.899Z,220.55
2023-02-05T23:05:23.272Z,231.45
2023-02-05T23:08:44.582Z,237.98
2023-02-05T23:12:02.582Z,231.45
2023-02-05T23:15:31.630Z,255.80
2023-02-05T23:18:45.363Z,233.98
2023-02-05T23:22:22.114Z,247.63
2023-02-05T23:25:42.246Z,242.88
2023-02-05T23:29:09.827Z,248.60
2023-02-05T23:32:44.742Z,274.10
2023-02-05T23:36:18.965Z,268.83
2023-02-05T23:39:59.692Z,258.95
2023-02-05T23:46:39.800Z,215.65
2023-02-05T23:50:02.659Z,262.02
2023-02-05T23:53:23.686Z,274.00
2023-02-05T23:57:05.533Z,250.57
